Time;durP1;ratioP1;P1;durP2;ratioP2;P2;SDS_P1;SDS_P2;PMS_P1;PMS_P2;Temp;Humidity;BMP_temperature;BMP_pressure;BME280_temperature;BME280_humidity;BME280_pressure;Samples;Min_cycle;Max_cycle;Signal;HPM_P1;HPM_P2
2023/06/28 00:00:29;;;;;;;3.80;3.53;;;25.90;52.80;;;;;;4981324;28;20215;-81
2023/06/28 00:02:55;;;;;;;4.00;3.70;;;25.90;52.80;;;;;;4965345;28;20432;-81
2023/06/28 00:05:25;;;;;;;5.20;3.70;;;25.90;52.80;;;;;;4981410;28;20444;-81
2023/06/28 00:07:53;;;;;;;4.63;3.53;;;25.90;52.80;;;;;;4998019;28;20439;-81
2023/06/28 00:10:21;;;;;;;4.77;3.90;;;25.90;52.80;;;;;;5014066;28;20464;-81
2023/06/28 00:12:51;;;;;;;4.20;3.90;;;25.90;52.80;;;;;;4997472;28;20416;-81
2023/06/28 00:15:17;;;;;;;4.07;3.87;;;25.90;52.80;;;;;;4997957;28;20522;-81
2023/06/28 00:17:43;;;;;;;3.93;3.63;;;25.80;52.80;;;;;;5014065;28;20417;-82
2023/06/28 00:20:10;;;;;;;4.37;3.97;;;25.80;52.80;;;;;;5014179;28;20614;-82
2023/06/28 00:22:39;;;;;;;4.27;3.97;;;25.80;52.80;;;;;;4981280;28;20473;-82
2023/06/28 00:25:06;;;;;;;3.70;3.50;;;25.80;52.80;;;;;;5014770;28;20463;-81
2023/06/28 00:27:32;;;;;;;4.63;3.97;;;25.80;52.80;;;;;;4979019;28;20499;-82
2023/06/28 00:29:58;;;;;;;4.10;3.80;;;25.80;52.80;;;;;;4972129;28;20559;-82
2023/06/28 00:32:26;;;;;;;4.87;3.60;;;25.80;53.40;;;;;;4997808;28;20500;-81
2023/06/28 00:34:52;;;;;;;4.77;4.37;;;25.80;52.70;;;;;;4980850;28;20448;-82
2023/06/28 00:37:26;;;;;;;3.90;3.70;;;25.80;52.70;;;;;;4963427;28;20886;-80
2023/06/28 00:39:54;;;;;;;3.70;3.50;;;25.80;52.80;;;;;;4993838;28;20471;-82
2023/06/28 00:42:25;;;;;;;4.87;4.47;;;25.70;52.80;;;;;;4977850;28;20194;-82
2023/06/28 00:44:56;;;;;;;4.13;3.83;;;25.70;52.80;;;;;;4946251;28;20421;-82
2023/06/28 00:47:22;;;;;;;6.00;4.20;;;25.70;52.80;;;;;;4962079;28;20450;-81
2023/06/28 00:49:50;;;;;;;4.30;4.00;;;25.70;52.80;;;;;;4958806;28;21074;-81
2023/06/28 00:52:19;;;;;;;5.23;4.17;;;25.70;52.80;;;;;;4975385;28;20438;-81
2023/06/28 00:54:44;;;;;;;4.70;4.30;;;25.70;52.80;;;;;;4942764;28;20426;-81
2023/06/28 00:57:13;;;;;;;4.67;4.23;;;25.70;52.80;;;;;;4958624;28;20945;-82
2023/06/28 00:59:40;;;;;;;4.87;4.47;;;25.70;52.90;;;;;;4982742;28;20959;-81
2023/06/28 01:02:06;;;;;;;4.73;4.23;;;25.60;52.80;;;;;;4997326;28;20443;-82
2023/06/28 01:04:36;;;;;;;5.03;4.53;;;25.60;52.80;;;;;;4996540;28;20742;-81
2023/06/28 01:07:03;;;;;;;4.90;4.33;;;25.40;52.70;;;;;;4981050;28;20512;-82
2023/06/28 01:09:33;;;;;;;4.87;4.20;;;25.60;52.90;;;;;;5008633;28;20536;-82
2023/06/28 01:12:01;;;;;;;5.00;4.60;;;25.60;52.90;;;;;;4984748;28;20910;-81
2023/06/28 01:14:28;;;;;;;5.30;4.80;;;25.60;52.90;;;;;;4997321;28;20495;-81
2023/06/28 01:16:54;;;;;;;5.60;4.57;;;25.60;52.90;;;;;;5013895;28;20521;-82
2023/06/28 01:19:28;;;;;;;4.87;4.23;;;25.60;53.00;;;;;;4979072;28;20467;-81
2023/06/28 01:22:01;;;;;;;5.87;4.30;;;25.60;53.10;;;;;;4963405;28;20437;-81
2023/06/28 01:24:28;;;;;;;4.67;4.27;;;25.50;53.00;;;;;;4974084;28;20436;-81
2023/06/28 01:27:01;;;;;;;5.90;3.90;;;25.50;53.00;;;;;;4997517;28;20418;-81
2023/06/28 01:29:28;;;;;;;4.23;3.93;;;25.50;53.10;;;;;;4980659;28;20474;-82
2023/06/28 01:31:56;;;;;;;5.17;3.80;;;25.50;53.10;;;;;;4980347;28;20416;-81
2023/06/28 01:34:24;;;;;;;4.40;4.00;;;25.50;53.10;;;;;;4996824;28;20418;-81
2023/06/28 01:36:56;;;;;;;4.73;4.40;;;25.50;53.10;;;;;;4996809;28;20401;-81
2023/06/28 01:39:26;;;;;;;5.87;4.30;;;25.50;53.20;;;;;;4961553;28;20500;-81
2023/06/28 01:41:54;;;;;;;4.53;4.10;;;25.40;53.20;;;;;;4945935;28;20447;-81
2023/06/28 01:44:23;;;;;;;4.60;4.30;;;25.40;53.70;;;;;;4961839;28;20511;-82
2023/06/28 01:46:51;;;;;;;4.60;4.20;;;25.40;53.20;;;;;;4996309;28;20440;-81
2023/06/28 01:49:17;;;;;;;4.87;4.33;;;25.40;53.20;;;;;;5016344;28;20499;-81
2023/06/28 01:51:43;;;;;;;4.63;4.33;;;25.40;53.30;;;;;;5000264;28;20847;-81
2023/06/28 01:54:09;;;;;;;4.00;3.80;;;25.40;53.40;;;;;;5000217;28;20471;-82
2023/06/28 01:56:41;;;;;;;4.67;4.17;;;25.40;53.40;;;;;;4966909;28;20507;-81
2023/06/28 01:59:08;;;;;;;5.10;4.57;;;25.40;53.40;;;;;;4997367;28;20428;-81
2023/06/28 02:01:34;;;;;;;4.07;3.77;;;25.40;53.40;;;;;;4968553;28;20446;-81
2023/06/28 02:04:00;;;;;;;4.10;3.80;;;25.40;53.40;;;;;;4961425;28;20646;-81
2023/06/28 02:06:28;;;;;;;4.33;4.03;;;25.30;53.30;;;;;;4953722;28;20604;-81
2023/06/28 02:08:56;;;;;;;6.37;4.63;;;25.30;53.50;;;;;;4979572;28;20178;-81
2023/06/28 02:11:22;;;;;;;4.10;3.80;;;25.30;53.40;;;;;;4999773;28;20915;-81
2023/06/28 02:13:50;;;;;;;5.30;4.40;;;25.30;53.40;;;;;;4999959;28;20512;-81
2023/06/28 02:16:16;;;;;;;4.40;4.00;;;25.20;53.40;;;;;;5016970;28;20509;-82
2023/06/28 02:18:45;;;;;;;3.93;3.73;;;25.20;53.40;;;;;;4990885;28;20539;-81
2023/06/28 02:21:18;;;;;;;4.37;4.00;;;25.30;53.50;;;;;;5017221;28;20472;-81
2023/06/28 02:23:44;;;;;;;3.73;3.53;;;25.20;53.40;;;;;;4970593;28;20431;-81
2023/06/28 02:26:12;;;;;;;3.93;3.63;;;25.20;53.50;;;;;;4977234;28;20422;-81
2023/06/28 02:28:39;;;;;;;4.43;4.00;;;25.20;53.50;;;;;;4954393;28;20430;-81
2023/06/28 02:31:09;;;;;;;4.23;3.80;;;25.20;53.50;;;;;;4977730;28;20480;-81
2023/06/28 02:33:37;;;;;;;4.00;3.70;;;25.20;53.60;;;;;;4977870;28;20425;-81
2023/06/28 02:36:04;;;;;;;4.13;3.83;;;25.20;54.10;;;;;;4960823;28;20442;-82
2023/06/28 02:38:32;;;;;;;4.70;4.30;;;25.20;53.60;;;;;;4953738;28;20442;-82
2023/06/28 02:40:58;;;;;;;4.10;3.90;;;25.20;53.60;;;;;;4944369;28;20488;-81
2023/06/28 02:43:24;;;;;;;4.10;3.90;;;25.20;53.60;;;;;;4959950;28;20210;-83
2023/06/28 02:45:50;;;;;;;4.10;3.90;;;25.10;53.60;;;;;;4983080;28;20433;-82
2023/06/28 02:48:15;;;;;;;4.80;4.40;;;25.10;53.60;;;;;;4998774;28;20189;-81
2023/06/28 02:50:42;;;;;;;4.53;4.03;;;25.10;53.70;;;;;;4982178;28;20475;-81
2023/06/28 02:53:13;;;;;;;4.40;3.90;;;25.10;53.60;;;;;;4983964;28;20405;-81
2023/06/28 02:55:38;;;;;;;3.77;3.57;;;25.10;53.70;;;;;;4967111;28;20823;-81
2023/06/28 02:58:11;;;;;;;6.07;4.17;;;25.10;53.70;;;;;;4998870;28;20185;-81
2023/06/28 03:00:46;;;;;;;3.87;3.60;;;25.10;53.70;;;;;;4956995;28;20426;-81
2023/06/28 03:03:13;;;;;;;4.57;3.53;;;25.00;53.70;;;;;;4960223;28;20406;-81
2023/06/28 03:05:41;;;;;;;3.97;3.67;;;25.00;53.70;;;;;;5010669;23;20508;-81
2023/06/28 03:08:13;;;;;;;4.13;3.83;;;25.00;53.70;;;;;;4968694;28;20854;-81
2023/06/28 03:10:41;;;;;;;7.10;4.00;;;25.00;53.80;;;;;;4983304;28;20465;-81
2023/06/28 03:13:07;;;;;;;4.10;3.80;;;25.00;53.80;;;;;;4976486;28;20498;-82
2023/06/28 03:15:34;;;;;;;4.00;3.63;;;25.00;53.90;;;;;;4959082;28;20874;-81
2023/06/28 03:18:00;;;;;;;4.20;3.80;;;25.00;53.90;;;;;;4977100;28;20515;-81
2023/06/28 03:20:27;;;;;;;4.50;4.20;;;25.00;53.90;;;;;;4969828;28;20207;-81
2023/06/28 03:22:57;;;;;;;4.80;4.50;;;25.00;54.00;;;;;;4973729;28;20950;-83
2023/06/28 03:25:28;;;;;;;4.47;4.17;;;25.00;54.00;;;;;;4973642;28;20446;-81
2023/06/28 03:27:56;;;;;;;4.30;4.00;;;24.90;54.10;;;;;;4950953;28;20921;-81
2023/06/28 03:30:25;;;;;;;4.90;4.60;;;24.90;54.10;;;;;;4956419;29;21057;-81
2023/06/28 03:32:50;;;;;;;5.50;3.83;;;24.90;54.10;;;;;;4949784;29;20447;-81
2023/06/28 03:35:16;;;;;;;3.57;3.27;;;24.90;54.20;;;;;;4993055;28;20187;-81
2023/06/28 03:37:53;;;;;;;3.40;3.20;;;24.90;54.20;;;;;;4982883;28;20511;-81
2023/06/28 03:40:22;;;;;;;3.80;3.50;;;24.90;54.30;;;;;;4944465;28;20501;-81
2023/06/28 03:42:48;;;;;;;4.10;3.80;;;24.90;54.30;;;;;;4968738;28;20398;-81
2023/06/28 03:45:16;;;;;;;6.53;4.13;;;24.90;54.40;;;;;;4959439;28;20770;-81
2023/06/28 03:47:42;;;;;;;3.77;3.47;;;24.90;54.50;;;;;;4973964;28;20444;-82
2023/06/28 03:50:09;;;;;;;4.40;4.00;;;24.80;54.40;;;;;;4972361;28;20980;-82
2023/06/28 03:52:36;;;;;;;4.20;3.90;;;24.80;54.50;;;;;;4994702;28;20436;-82
2023/06/28 03:55:02;;;;;;;3.70;3.50;;;24.80;54.50;;;;;;4989497;28;20460;-81
2023/06/28 03:57:29;;;;;;;4.33;3.93;;;24.80;54.60;;;;;;4993296;28;20409;-81
2023/06/28 03:59:59;;;;;;;4.17;3.87;;;24.80;54.60;;;;;;4976099;28;20428;-81
2023/06/28 04:02:26;;;;;;;3.63;3.43;;;24.80;54.70;;;;;;4975917;28;20472;-81
2023/06/28 04:04:55;;;;;;;3.90;3.70;;;24.80;54.70;;;;;;4976298;28;20266;-81
2023/06/28 04:07:24;;;;;;;4.40;4.00;;;24.80;54.70;;;;;;4971094;28;20446;-81
2023/06/28 04:09:53;;;;;;;3.83;3.57;;;24.80;54.90;;;;;;4968227;28;20468;-82
2023/06/28 04:12:20;;;;;;;3.50;3.30;;;24.70;54.80;;;;;;4958977;28;20450;-81
2023/06/28 04:14:49;;;;;;;4.23;3.93;;;24.70;54.80;;;;;;4936050;28;20481;-82
2023/06/28 04:17:17;;;;;;;4.47;4.07;;;24.70;54.80;;;;;;4975947;28;20414;-81
2023/06/28 04:19:43;;;;;;;4.33;4.03;;;24.70;54.90;;;;;;4948503;29;20447;-81
2023/06/28 04:22:09;;;;;;;4.40;4.10;;;24.70;54.90;;;;;;4939583;29;20214;-82
2023/06/28 04:24:40;;;;;;;4.77;4.43;;;24.70;55.00;;;;;;4956347;28;20461;-80
2023/06/28 04:27:06;;;;;;;3.83;3.50;;;24.70;55.10;;;;;;4950827;29;20520;-81
2023/06/28 04:29:32;;;;;;;4.20;3.70;;;24.70;55.10;;;;;;4975846;28;20466;-81
2023/06/28 04:32:19;;;;;;;4.20;3.90;;;24.70;55.20;;;;;;4956540;29;20431;-81
2023/06/28 04:34:46;;;;;;;4.40;3.90;;;24.70;55.20;;;;;;4948058;28;20422;-81
2023/06/28 04:37:14;;;;;;;4.13;3.80;;;24.70;55.30;;;;;;4985959;28;20430;-81
2023/06/28 04:39:43;;;;;;;4.63;3.90;;;24.70;55.30;;;;;;4986604;28;20461;-82
2023/06/28 04:42:09;;;;;;;4.13;3.83;;;24.70;55.30;;;;;;4971206;28;20191;-82
2023/06/28 04:44:41;;;;;;;5.13;4.27;;;24.60;55.40;;;;;;4989878;28;20467;-82
2023/06/28 04:47:10;;;;;;;4.73;4.43;;;24.60;55.40;;;;;;4975528;28;20202;-82
2023/06/28 04:49:35;;;;;;;4.40;4.00;;;24.60;55.50;;;;;;4991735;28;20469;-82
2023/06/28 04:52:05;;;;;;;3.60;3.40;;;24.60;55.50;;;;;;4971385;28;20480;-82
2023/06/28 04:54:33;;;;;;;4.57;3.70;;;24.60;55.60;;;;;;4978340;28;20202;-82
2023/06/28 04:57:00;;;;;;;4.30;4.00;;;24.60;55.70;;;;;;4981059;28;20442;-82
2023/06/28 04:59:26;;;;;;;5.73;4.50;;;24.60;55.80;;;;;;4981227;28;20175;-82
2023/06/28 05:01:52;;;;;;;4.27;3.97;;;24.60;55.80;;;;;;4981603;28;20467;-82
2023/06/28 05:04:18;;;;;;;3.90;3.60;;;24.60;55.80;;;;;;4983515;28;20588;-82
2023/06/28 05:06:46;;;;;;;5.83;3.80;;;24.60;55.80;;;;;;4978698;28;20461;-81
2023/06/28 05:09:14;;;;;;;3.80;3.57;;;24.50;55.90;;;;;;4979351;28;20197;-82
2023/06/28 05:11:43;;;;;;;3.67;3.37;;;24.50;55.80;;;;;;4975843;28;20756;-82
2023/06/28 05:14:09;;;;;;;4.03;3.77;;;24.50;55.80;;;;;;4978741;28;20484;-82
2023/06/28 05:16:35;;;;;;;3.67;3.43;;;24.60;55.90;;;;;;4978399;28;20509;-81
2023/06/28 05:19:02;;;;;;;3.50;3.30;;;24.50;56.00;;;;;;4958301;28;20482;-82
2023/06/28 05:21:33;;;;;;;3.70;3.40;;;24.40;56.00;;;;;;4978650;28;20402;-82
2023/06/28 05:23:59;;;;;;;5.07;3.50;;;24.50;56.40;;;;;;4953205;29;20557;-82
2023/06/28 05:26:29;;;;;;;3.80;3.50;;;24.50;56.40;;;;;;4974349;28;20457;-82
2023/06/28 05:28:55;;;;;;;3.30;3.10;;;24.40;56.50;;;;;;4953115;29;20419;-82
2023/06/28 05:31:23;;;;;;;4.40;4.00;;;24.50;56.70;;;;;;4958793;29;20525;-82
2023/06/28 05:33:49;;;;;;;3.50;3.20;;;24.50;57.00;;;;;;4959711;29;20798;-82
2023/06/28 05:36:15;;;;;;;3.93;3.63;;;24.50;57.40;;;;;;4955769;29;20509;-82
2023/06/28 05:38:41;;;;;;;3.20;3.00;;;24.40;57.40;;;;;;4959161;29;20539;-82
2023/06/28 05:41:19;;;;;;;4.00;3.60;;;24.50;57.70;;;;;;4954285;29;20529;-81
2023/06/28 05:43:45;;;;;;;3.90;3.50;;;24.40;57.50;;;;;;4959326;28;20507;-82
2023/06/28 05:46:12;;;;;;;4.40;3.77;;;24.50;57.70;;;;;;4959113;29;20426;-82
2023/06/28 05:48:38;;;;;;;3.93;3.63;;;24.20;57.30;;;;;;4959316;29;20471;-81
2023/06/28 05:51:09;;;;;;;4.97;3.57;;;24.40;57.90;;;;;;4953820;29;20423;-81
2023/06/28 05:53:39;;;;;;;4.20;3.87;;;24.50;58.10;;;;;;4961673;28;20498;-81
2023/06/28 05:56:06;;;;;;;3.40;3.17;;;24.40;58.60;;;;;;4959412;29;20732;-82
2023/06/28 05:58:32;;;;;;;3.77;3.57;;;24.50;58.40;;;;;;4961630;29;20446;-81
2023/06/28 06:01:01;;;;;;;3.60;3.30;;;24.30;58.90;;;;;;4966521;29;21094;-81
2023/06/28 06:03:32;;;;;;;4.33;3.93;;;24.30;58.30;;;;;;4960580;29;20704;-81
2023/06/28 06:05:58;;;;;;;4.87;4.47;;;24.40;59.20;;;;;;4959184;28;20466;-81
2023/06/28 06:08:25;;;;;;;3.80;3.50;;;24.30;58.50;;;;;;4940004;29;20442;-81
2023/06/28 06:10:56;;;;;;;4.53;3.37;;;24.40;58.60;;;;;;4958713;29;20463;-81
2023/06/28 06:13:27;;;;;;;3.80;3.50;;;24.30;58.60;;;;;;4959349;29;20399;-81
2023/06/28 06:15:55;;;;;;;4.20;3.80;;;24.40;58.80;;;;;;4952035;29;20470;-81
2023/06/28 06:18:20;;;;;;;4.00;3.70;;;24.30;59.30;;;;;;4976390;28;20522;-81
2023/06/28 06:20:50;;;;;;;3.57;3.37;;;24.40;62.80;;;;;;4962362;29;20473;-81
2023/06/28 06:23:19;;;;;;;3.73;3.43;;;24.30;62.30;;;;;;4982065;28;20449;-82
2023/06/28 06:25:45;;;;;;;4.37;3.60;;;24.30;62.30;;;;;;4969059;28;20442;-81
2023/06/28 06:28:11;;;;;;;4.13;3.83;;;24.30;62.10;;;;;;4977774;28;20742;-81
2023/06/28 06:30:37;;;;;;;3.70;3.40;;;24.30;62.20;;;;;;4977126;28;20489;-82
2023/06/28 06:33:08;;;;;;;3.77;3.43;;;24.30;63.00;;;;;;4972480;28;20469;-81
2023/06/28 06:35:34;;;;;;;4.00;3.70;;;24.30;63.80;;;;;;4961006;28;20456;-81
2023/06/28 06:37:59;;;;;;;4.13;3.80;;;24.20;67.20;;;;;;4971290;28;20434;-81
2023/06/28 06:40:25;;;;;;;4.53;3.77;;;24.30;66.90;;;;;;4957230;29;20355;-81
2023/06/28 06:42:54;;;;;;;3.60;3.40;;;24.30;66.90;;;;;;4964959;28;20994;-81
2023/06/28 06:45:23;;;;;;;3.77;3.47;;;24.20;66.70;;;;;;4977431;28;20155;-81
2023/06/28 06:47:53;;;;;;;3.73;3.43;;;24.20;66.30;;;;;;4977420;28;20433;-81
2023/06/28 06:50:19;;;;;;;3.40;3.10;;;24.20;66.20;;;;;;4977129;28;20258;-82
2023/06/28 06:52:45;;;;;;;4.10;3.90;;;24.20;66.20;;;;;;4981092;28;20535;-81
2023/06/28 06:55:14;;;;;;;4.37;3.97;;;24.20;66.10;;;;;;4977099;28;20262;-81
2023/06/28 06:57:40;;;;;;;5.90;3.20;;;24.20;65.90;;;;;;4969284;28;20510;-82
2023/06/28 07:00:08;;;;;;;4.10;3.33;;;24.20;65.90;;;;;;4955814;28;20223;-83
2023/06/28 07:02:35;;;;;;;4.07;3.50;;;24.20;65.70;;;;;;4959438;28;20510;-82
2023/06/28 07:05:01;;;;;;;4.63;3.77;;;24.10;65.40;;;;;;4980395;28;20505;-81
2023/06/28 07:07:26;;;;;;;3.90;3.60;;;24.10;65.60;;;;;;4976593;28;20426;-81
2023/06/28 07:09:52;;;;;;;3.50;3.30;;;24.10;65.90;;;;;;4969249;28;20221;-82
2023/06/28 07:12:18;;;;;;;3.50;3.20;;;24.10;66.50;;;;;;4994208;28;20428;-83
2023/06/28 07:14:51;;;;;;;3.83;3.33;;;24.20;66.10;;;;;;4973830;28;20286;-82
2023/06/28 07:17:19;;;;;;;3.23;3.03;;;24.10;65.80;;;;;;4993649;28;20468;-82
2023/06/28 07:19:47;;;;;;;3.93;3.53;;;24.10;65.90;;;;;;4971936;28;20524;-83
2023/06/28 07:22:13;;;;;;;4.43;4.03;;;24.30;66.90;;;;;;4996244;28;20739;-84
2023/06/28 07:24:39;;;;;;;8.07;3.87;;;24.10;66.30;;;;;;4964849;28;20472;-83
2023/06/28 07:27:05;;;;;;;4.00;3.70;;;24.10;66.50;;;;;;4951767;28;20214;-83
2023/06/28 07:29:32;;;;;;;3.83;3.53;;;24.10;66.10;;;;;;4977966;28;20214;-82
2023/06/28 07:31:58;;;;;;;3.47;3.17;;;24.10;65.80;;;;;;4974794;28;20186;-82
2023/06/28 07:34:23;;;;;;;5.40;3.57;;;24.10;65.90;;;;;;4959711;28;21105;-83
2023/06/28 07:36:49;;;;;;;4.10;3.70;;;24.00;66.10;;;;;;4976493;28;20484;-83
2023/06/28 07:39:15;;;;;;;3.50;3.20;;;24.10;66.40;;;;;;4976621;28;20183;-82
2023/06/28 07:41:43;;;;;;;3.40;3.20;;;24.10;66.30;;;;;;4967892;28;20473;-82
2023/06/28 07:44:11;;;;;;;4.10;3.90;;;24.10;66.10;;;;;;4975227;28;20935;-82
2023/06/28 07:46:39;;;;;;;3.73;3.23;;;24.10;65.80;;;;;;4966160;28;20465;-82
2023/06/28 07:49:05;;;;;;;4.30;3.87;;;24.10;66.10;;;;;;4959234;28;20891;-82
2023/06/28 07:51:34;;;;;;;3.90;3.57;;;24.00;65.80;;;;;;4959872;28;20422;-83
2023/06/28 07:54:02;;;;;;;4.00;3.70;;;24.00;66.20;;;;;;4972325;28;20750;-82
2023/06/28 07:56:30;;;;;;;3.93;3.60;;;24.00;66.40;;;;;;4976082;28;20460;-81
2023/06/28 07:59:01;;;;;;;3.97;3.70;;;24.00;66.10;;;;;;4953371;28;20450;-81
2023/06/28 08:01:29;;;;;;;3.60;3.30;;;24.10;65.90;;;;;;4975527;28;20777;-82
2023/06/28 08:03:57;;;;;;;3.93;3.63;;;24.00;66.60;;;;;;4968837;28;20771;-83
2023/06/28 08:06:23;;;;;;;3.87;3.43;;;24.10;65.90;;;;;;4978199;28;20440;-83
2023/06/28 08:08:48;;;;;;;4.50;4.13;;;24.00;65.80;;;;;;4987784;28;20619;-82
2023/06/28 08:11:14;;;;;;;3.80;3.50;;;24.00;65.80;;;;;;4979717;28;20264;-93
2023/06/28 08:13:43;;;;;;;4.50;4.20;;;24.00;66.10;;;;;;4964700;28;20328;-94
2023/06/28 08:16:11;;;;;;;3.97;3.67;;;24.10;66.80;;;;;;4969120;28;20493;-93
2023/06/28 08:18:52;;;;;;;7.13;3.50;;;24.10;67.30;;;;;;4926262;29;20439;-95
2023/06/28 08:21:55;;;;;;;4.23;3.80;;;24.00;69.40;;;;;;4931513;28;20470;-96
2023/06/28 08:24:56;;;;;;;3.97;3.67;;;24.30;65.90;;;;;;4910101;29;20450;-94
2023/06/28 08:27:22;;;;;;;5.27;4.77;;;24.20;68.90;;;;;;4887156;29;20432;-94
2023/06/28 08:30:28;;;;;;;;;;;;;;;;;;;;;
2023/06/28 08:32:54;;;;;;;5.60;4.47;;;24.10;67.70;;;;;;4918369;29;20436;-93
2023/06/28 08:35:20;;;;;;;3.73;3.40;;;24.00;67.90;;;;;;4918019;29;20432;-93
2023/06/28 08:37:46;;;;;;;4.20;3.90;;;24.00;67.50;;;;;;4920739;29;20433;-93
2023/06/28 08:40:12;;;;;;;3.63;3.40;;;24.00;67.50;;;;;;4918139;29;20443;-93
2023/06/28 08:42:42;;;;;;;4.60;4.20;;;24.00;67.70;;;;;;4886924;29;20216;-95
2023/06/28 08:45:09;;;;;;;4.07;3.77;;;24.00;66.30;;;;;;4920039;29;20783;-89
2023/06/28 08:47:41;;;;;;;3.87;3.57;;;24.00;65.80;;;;;;4917497;29;20611;-94
2023/06/28 08:50:09;;;;;;;4.07;3.77;;;24.00;65.50;;;;;;4899335;29;20501;-92
2023/06/28 08:52:37;;;;;;;4.40;3.60;;;24.00;65.90;;;;;;4901712;29;20441;-93
2023/06/28 08:55:04;;;;;;;5.30;4.27;;;24.00;65.80;;;;;;4918098;29;20789;-91
2023/06/28 08:57:31;;;;;;;4.00;3.70;;;24.00;65.90;;;;;;4902192;29;20421;-91
2023/06/28 08:59:58;;;;;;;4.37;3.97;;;24.00;66.20;;;;;;4921696;29;20453;-92
2023/06/28 09:02:28;;;;;;;4.30;3.90;;;24.00;65.80;;;;;;4967033;28;20421;-90
2023/06/28 09:04:54;;;;;;;4.47;4.17;;;24.00;65.90;;;;;;4956003;28;20516;-88
2023/06/28 09:07:21;;;;;;;3.97;3.50;;;24.00;65.60;;;;;;4994854;28;20445;-90
2023/06/28 09:13:06;;;;;;;4.50;4.10;;;23.90;65.40;;;;;;4996193;28;20503;-94
2023/06/28 09:15:40;;;;;;;5.50;4.33;;;24.00;67.00;;;;;;4962219;28;20453;-94
2023/06/28 09:18:06;;;;;;;4.50;4.10;;;23.90;66.40;;;;;;4959445;28;20433;-94
2023/06/28 09:20:47;;;;;;;;;;;;;;;;;;;;;
2023/06/28 09:24:02;;;;;;;4.20;3.90;;;24.30;67.60;;;;;;4962047;28;20430;-88
2023/06/28 09:26:33;;;;;;;4.30;4.00;;;24.10;66.80;;;;;;4977918;28;20458;-94
2023/06/28 09:29:11;;;;;;;3.77;3.47;;;23.90;65.60;;;;;;4959449;28;20457;-93
2023/06/28 10:01:42;;;;;;;4.03;3.73;;;24.30;65.90;;;;;;4905623;29;20446;-96
2023/06/28 10:04:12;;;;;;;3.90;3.60;;;23.90;65.70;;;;;;4898933;29;20504;-90
2023/06/28 10:06:45;;;;;;;3.70;3.50;;;23.80;66.00;;;;;;4934474;28;20995;-96
2023/06/28 10:09:28;;;;;;;4.10;3.80;;;24.20;68.30;;;;;;4979157;28;20448;-93
2023/06/28 10:39:17;;;;;;;4.93;3.77;;;24.40;66.20;;;;;;4854590;29;20440;-95
2023/06/28 10:41:56;;;;;;;4.47;3.90;;;24.10;65.90;;;;;;4835543;29;20468;-94
2023/06/28 10:44:23;;;;;;;5.77;4.37;;;24.00;66.40;;;;;;4845046;29;20452;-93
2023/06/28 10:47:10;;;;;;;4.90;4.00;;;24.00;67.50;;;;;;4855317;29;20465;-92
2023/06/28 10:49:38;;;;;;;6.17;4.37;;;23.90;65.80;;;;;;4858184;29;20472;-92
2023/06/28 10:52:12;;;;;;;6.17;4.20;;;23.90;65.70;;;;;;4836333;29;20439;-91
2023/06/28 10:54:38;;;;;;;4.37;4.00;;;23.90;65.70;;;;;;4866478;29;20918;-88
2023/06/28 10:57:10;;;;;;;5.20;4.70;;;23.90;67.60;;;;;;4851636;29;20441;-95
2023/06/28 10:59:42;;;;;;;6.40;3.90;;;24.30;67.60;;;;;;4885685;29;20444;-93
2023/06/28 11:02:08;;;;;;;4.23;3.90;;;23.90;68.00;;;;;;4894408;29;20459;-91
2023/06/28 11:04:50;;;;;;;5.70;5.20;;;24.00;66.80;;;;;;4926965;29;20891;-90
2023/06/28 11:07:20;;;;;;;4.60;4.20;;;24.00;65.90;;;;;;4942986;28;20476;-91
2023/06/28 11:10:14;;;;;;;4.50;4.10;;;24.00;65.70;;;;;;4973975;28;20799;-92
2023/06/28 11:12:50;;;;;;;5.40;4.90;;;23.90;65.60;;;;;;4959179;28;20407;-96
2023/06/28 11:15:26;;;;;;;5.70;5.30;;;23.90;66.50;;;;;;4955051;29;20489;-91
2023/06/28 11:18:31;;;;;;;5.33;4.23;;;24.00;66.00;;;;;;4952481;28;20753;-94
2023/06/28 11:20:58;;;;;;;4.83;4.40;;;24.00;68.70;;;;;;4906874;29;20426;-91
2023/06/28 11:23:37;;;;;;;5.90;4.00;;;24.00;66.90;;;;;;4891306;29;20428;-91
2023/06/28 11:26:05;;;;;;;4.73;4.37;;;24.00;65.60;;;;;;4891340;29;20443;-92
2023/06/28 11:28:45;;;;;;;5.97;5.03;;;23.90;65.70;;;;;;4906330;29;20882;-91
2023/06/28 11:31:14;;;;;;;5.03;4.63;;;24.00;65.50;;;;;;4890825;29;20507;-92
2023/06/28 11:33:41;;;;;;;5.00;4.60;;;24.10;65.90;;;;;;4890971;29;20467;-92
2023/06/28 11:36:09;;;;;;;4.10;3.80;;;24.00;65.50;;;;;;4890678;29;20489;-92
2023/06/28 11:38:36;;;;;;;4.80;4.40;;;24.00;65.60;;;;;;4922048;29;20592;-93
2023/06/28 11:41:02;;;;;;;5.50;4.57;;;24.00;65.30;;;;;;4890850;29;20436;-92
2023/06/28 11:43:28;;;;;;;5.00;4.60;;;24.10;66.80;;;;;;4890772;29;20428;-92
2023/06/28 11:45:54;;;;;;;7.10;4.87;;;24.10;67.80;;;;;;4890862;29;20904;-91
2023/06/28 11:48:21;;;;;;;5.43;4.87;;;24.10;68.30;;;;;;4890818;29;20475;-92
2023/06/28 11:50:58;;;;;;;4.80;4.30;;;24.00;67.00;;;;;;4896048;28;20466;-90
2023/06/28 11:53:25;;;;;;;5.43;4.93;;;24.10;66.10;;;;;;4945144;28;20454;-93
2023/06/28 11:55:53;;;;;;;5.83;5.33;;;24.20;66.30;;;;;;4938654;28;20437;-92
2023/06/28 11:58:33;;;;;;;4.60;4.33;;;24.10;65.80;;;;;;4960690;28;20446;-91
2023/06/28 12:01:00;;;;;;;4.97;4.50;;;24.10;65.30;;;;;;4939658;28;20477;-92
2023/06/28 12:03:31;;;;;;;6.70;5.33;;;24.10;65.70;;;;;;4944908;28;20460;-95
2023/06/28 12:06:01;;;;;;;5.73;5.13;;;24.20;67.30;;;;;;4940141;28;20464;-93
2023/06/28 12:08:35;;;;;;;5.40;5.00;;;24.20;66.60;;;;;;4944730;28;20433;-92
2023/06/28 12:11:07;;;;;;;9.00;5.10;;;24.10;66.00;;;;;;4939944;28;20674;-91
2023/06/28 12:13:36;;;;;;;4.83;4.43;;;24.00;66.30;;;;;;4960616;28;20446;-92
2023/06/28 12:16:15;;;;;;;5.70;5.20;;;24.20;68.10;;;;;;4955880;28;20414;-93
2023/06/28 12:19:01;;;;;;;5.47;4.93;;;24.20;66.00;;;;;;4944696;28;20452;-93
2023/06/28 12:21:29;;;;;;;5.30;4.63;;;24.10;66.10;;;;;;4945116;28;20414;-93
2023/06/28 12:24:19;;;;;;;5.37;4.87;;;24.10;66.30;;;;;;4954203;28;20430;-93
2023/06/28 12:26:49;;;;;;;5.77;5.27;;;23.80;65.80;;;;;;4954644;28;20451;-93
2023/06/28 12:33:56;;;;;;;8.00;4.90;;;24.60;66.90;;;;;;4855778;29;20992;-93
2023/06/28 12:36:23;;;;;;;6.70;6.03;;;24.20;68.70;;;;;;4855064;29;20438;-92
2023/06/28 12:38:49;;;;;;;7.23;6.27;;;24.30;69.40;;;;;;4935198;29;20917;-92
2023/06/28 12:41:16;;;;;;;6.00;5.40;;;24.20;69.10;;;;;;4943968;28;20914;-91
2023/06/28 12:43:42;;;;;;;5.90;5.40;;;24.40;69.00;;;;;;4959892;28;20426;-92
2023/06/28 12:46:10;;;;;;;9.70;5.60;;;24.20;68.20;;;;;;4966297;28;20428;-91
2023/06/28 12:48:36;;;;;;;6.30;5.57;;;24.40;66.50;;;;;;4963802;28;20517;-91
2023/06/28 12:51:02;;;;;;;7.37;6.77;;;24.10;66.80;;;;;;4958789;28;20492;-91
2023/06/28 12:53:28;;;;;;;7.90;5.40;;;24.20;68.60;;;;;;4963780;28;20421;-92
2023/06/28 12:55:54;;;;;;;7.00;6.40;;;24.20;68.10;;;;;;4959942;28;20429;-90
2023/06/28 12:58:20;;;;;;;6.97;6.27;;;24.20;66.60;;;;;;4963507;28;20461;-91
2023/06/28 13:00:47;;;;;;;6.57;6.00;;;24.20;66.80;;;;;;4969329;28;20445;-90
2023/06/28 13:03:22;;;;;;;7.07;6.40;;;24.30;66.10;;;;;;4944521;28;20823;-91
2023/06/28 13:05:48;;;;;;;7.43;6.50;;;24.30;67.30;;;;;;4960250;28;20445;-91
2023/06/28 13:08:14;;;;;;;8.17;6.87;;;24.40;67.60;;;;;;4944190;28;20429;-92
2023/06/28 13:10:40;;;;;;;9.40;6.07;;;24.40;67.60;;;;;;4952147;28;20495;-91
2023/06/28 13:13:06;;;;;;;7.83;7.03;;;24.40;67.60;;;;;;4944258;28;20456;-92
2023/06/28 13:15:32;;;;;;;7.20;6.47;;;24.30;67.10;;;;;;4944372;28;20425;-91
2023/06/28 13:17:58;;;;;;;7.37;6.67;;;24.40;66.50;;;;;;4954828;28;20461;-92
2023/06/28 13:20:26;;;;;;;7.00;6.30;;;24.40;66.30;;;;;;4943993;28;20422;-92
2023/06/28 13:22:55;;;;;;;6.90;6.30;;;24.40;66.70;;;;;;4937895;28;20457;-93
2023/06/28 13:25:21;;;;;;;7.60;6.90;;;24.30;68.00;;;;;;4960089;28;20472;-93
2023/06/28 13:27:47;;;;;;;6.60;6.00;;;24.40;66.70;;;;;;4937467;28;20453;-92
2023/06/28 13:30:13;;;;;;;7.53;6.67;;;24.40;67.60;;;;;;4943831;28;20473;-92
2023/06/28 13:32:39;;;;;;;8.37;6.93;;;24.40;66.40;;;;;;4944072;28;20437;-92
2023/06/28 13:35:06;;;;;;;6.87;6.37;;;24.50;67.20;;;;;;4946882;28;20428;-91
2023/06/28 13:37:32;;;;;;;6.90;6.30;;;24.40;66.20;;;;;;4947267;28;20424;-92
2023/06/28 13:40:00;;;;;;;7.10;6.40;;;24.70;68.20;;;;;;4942139;28;20437;-92
2023/06/28 13:42:26;;;;;;;7.20;6.43;;;24.40;66.00;;;;;;4947382;28;20461;-92
2023/06/28 13:44:53;;;;;;;6.33;5.83;;;24.40;67.20;;;;;;4942278;28;20975;-92
2023/06/28 13:47:19;;;;;;;8.30;7.50;;;24.40;66.40;;;;;;4959224;28;20499;-91
2023/06/28 13:49:45;;;;;;;7.70;5.93;;;24.40;68.80;;;;;;4980764;28;20922;-94
2023/06/28 13:52:12;;;;;;;10.50;6.03;;;24.50;70.40;;;;;;4967650;28;20424;-93
2023/06/28 13:54:38;;;;;;;7.10;5.97;;;24.50;68.50;;;;;;4983129;28;20445;-92
2023/06/28 13:57:05;;;;;;;7.30;6.00;;;24.50;70.40;;;;;;4966674;28;20432;-92
2023/06/28 13:59:31;;;;;;;7.00;6.00;;;24.60;69.60;;;;;;4966493;28;20441;-93
2023/06/28 14:01:57;;;;;;;8.83;5.67;;;24.60;70.00;;;;;;4992928;28;20448;-90